createdAt,value
2023-01-22T00:00:44.516Z,47.70
2023-01-22T00:03:33.655Z,55.22
2023-01-22T00:06:22.065Z,60.95
2023-01-22T00:09:09.446Z,50.28
2023-01-22T00:11:57.949Z,54.90
2023-01-22T00:14:46.017Z,66.07
2023-01-22T00:17:33.686Z,63.33
2023-01-22T00:20:22.345Z,54.67
2023-01-22T00:23:10.057Z,51.28
2023-01-22T00:26:05.426Z,61.72
2023-01-22T00:28:52.838Z,62.03
2023-01-22T00:31:40.684Z,59.78
2023-01-22T00:34:28.357Z,61.80
2023-01-22T00:37:20.381Z,61.97
2023-01-22T00:40:08.698Z,58.47
2023-01-22T00:42:56.389Z,71.55
2023-01-22T00:45:43.880Z,68.88
2023-01-22T00:48:31.280Z,57.88
2023-01-22T00:51:19.362Z,71.47
2023-01-22T00:54:10.434Z,59.45
2023-01-22T00:56:57.885Z,57.10
2023-01-22T00:59:46.352Z,62.00
2023-01-22T01:02:34.152Z,62.63
2023-01-22T01:05:21.878Z,62.47
2023-01-22T01:08:09.664Z,55.53
2023-01-22T01:11:00.300Z,61.33
2023-01-22T01:13:47.757Z,57.83
2023-01-22T01:16:35.729Z,64.65
2023-01-22T01:19:23.309Z,66.45
2023-01-22T01:22:11.795Z,69.75
2023-01-22T01:24:59.927Z,62.92
2023-01-22T01:27:48.668Z,61.60
2023-01-22T01:30:36.517Z,68.53
2023-01-22T01:33:24.186Z,64.13
2023-01-22T01:36:13.688Z,55.08
2023-01-22T01:39:03.188Z,62.83
2023-01-22T01:41:50.904Z,63.58
2023-01-22T01:44:43.979Z,66.32
2023-01-22T01:47:35.611Z,63.58
2023-01-22T01:50:25.840Z,56.85
2023-01-22T01:53:13.244Z,64.68
2023-01-22T01:56:04.158Z,62.08
2023-01-22T01:58:55.095Z,55.45
2023-01-22T02:01:48.367Z,65.05
2023-01-22T02:04:37.105Z,58.10
2023-01-22T02:07:24.684Z,60.35
2023-01-22T02:10:12.568Z,58.17
2023-01-22T02:13:07.587Z,56.85
2023-01-22T02:15:55.837Z,60.05
2023-01-22T02:18:45.002Z,46.15
2023-01-22T02:21:37.466Z,52.30
2023-01-22T02:24:25.589Z,59.95
2023-01-22T02:27:13.093Z,50.35
2023-01-22T02:30:00.814Z,57.65
2023-01-22T02:32:49.603Z,58.17
2023-01-22T02:35:37.688Z,63.35
2023-01-22T02:38:26.879Z,59.58
2023-01-22T02:41:15.532Z,62.50
2023-01-22T02:44:03.581Z,67.10
2023-01-22T02:46:51.055Z,61.75
2023-01-22T02:49:38.987Z,70.50
2023-01-22T02:52:27.071Z,71.28
2023-01-22T02:55:15.856Z,56.70
2023-01-22T02:58:03.432Z,52.15
2023-01-22T03:00:51.031Z,56.45
2023-01-22T03:03:38.727Z,50.72
2023-01-22T03:06:27.996Z,54.28
2023-01-22T03:09:18.417Z,59.45
2023-01-22T03:12:08.268Z,43.80
2023-01-22T03:15:17.575Z,58.38
2023-01-22T03:18:24.053Z,49.38
2023-01-22T03:21:16.068Z,51.42
2023-01-22T03:24:04.059Z,54.50
2023-01-22T03:26:51.403Z,58.92
2023-01-22T03:29:40.947Z,62.15
2023-01-22T03:32:28.846Z,55.17
2023-01-22T03:35:16.779Z,47.35
2023-01-22T03:38:21.515Z,56.03
2023-01-22T03:41:12.129Z,47.47
2023-01-22T03:44:03.667Z,41.40
2023-01-22T03:46:56.384Z,42.05
2023-01-22T03:49:44.546Z,50.97
2023-01-22T03:52:32.093Z,42.33
2023-01-22T03:55:22.422Z,42.13
2023-01-22T03:58:10.197Z,45.58
2023-01-22T04:00:59.209Z,41.25
2023-01-22T04:03:51.245Z,47.00
2023-01-22T04:06:38.809Z,38.90
2023-01-22T04:09:26.314Z,41.85
2023-01-22T04:12:13.911Z,39.75
2023-01-22T04:15:03.250Z,51.83
2023-01-22T04:17:50.865Z,46.70
2023-01-22T04:21:05.877Z,48.72
2023-01-22T04:24:03.642Z,35.92
2023-01-22T04:26:52.829Z,40.60
2023-01-22T04:29:41.521Z,39.97
2023-01-22T04:32:29.684Z,44.45
2023-01-22T04:35:36.784Z,36.83
2023-01-22T04:38:25.983Z,40.25
2023-01-22T04:41:13.829Z,40.47
2023-01-22T04:44:01.539Z,43.45
2023-01-22T04:46:51.779Z,42.65
2023-01-22T04:49:39.509Z,42.50
2023-01-22T04:52:29.929Z,41.95
2023-01-22T04:55:19.565Z,37.60
2023-01-22T04:58:14.810Z,40.45
2023-01-22T05:01:02.789Z,41.35
2023-01-22T05:03:50.310Z,43.40
2023-01-22T05:06:38.155Z,33.30
2023-01-22T05:09:26.879Z,34.75
2023-01-22T05:12:20.652Z,32.13
2023-01-22T05:15:23.082Z,27.77
2023-01-22T05:18:13.547Z,30.67
2023-01-22T05:21:08.124Z,26.10
2023-01-22T05:23:57.471Z,25.73
2023-01-22T05:26:47.853Z,23.20
2023-01-22T05:29:41.559Z,27.90
2023-01-22T05:32:45.049Z,24.77
2023-01-22T05:35:32.593Z,28.75
2023-01-22T05:38:20.439Z,23.92
2023-01-22T05:41:08.005Z,23.10
2023-01-22T05:43:58.906Z,28.27
2023-01-22T05:46:51.190Z,29.50
2023-01-22T05:50:01.929Z,36.53
2023-01-22T05:52:49.493Z,46.65
2023-01-22T05:55:37.747Z,37.03
2023-01-22T05:58:26.107Z,35.13
2023-01-22T06:01:14.193Z,39.65
2023-01-22T06:04:07.645Z,37.33
2023-01-22T06:06:55.031Z,39.22
2023-01-22T06:09:44.165Z,40.70
2023-01-22T06:12:31.771Z,38.08
2023-01-22T06:15:19.561Z,42.45
2023-01-22T06:18:15.146Z,53.95
2023-01-22T06:21:07.229Z,63.17
2023-01-22T06:23:55.426Z,56.70
2023-01-22T06:26:43.053Z,53.67
2023-01-22T06:29:32.937Z,42.15
2023-01-22T06:32:21.351Z,37.15
2023-01-22T06:35:09.637Z,39.17
2023-01-22T06:37:58.838Z,39.72
2023-01-22T06:40:52.831Z,39.10
2023-01-22T06:43:40.602Z,39.00
2023-01-22T06:46:28.814Z,41.63
2023-01-22T06:49:29.099Z,43.85
2023-01-22T06:52:16.650Z,43.13
2023-01-22T06:55:06.419Z,40.58
2023-01-22T06:57:56.603Z,39.67
2023-01-22T07:00:44.217Z,52.08
2023-01-22T07:03:31.962Z,39.10
2023-01-22T07:06:19.818Z,46.58
2023-01-22T07:09:07.650Z,45.17
2023-01-22T07:11:58.663Z,49.65
2023-01-22T07:14:46.468Z,48.33
2023-01-22T07:17:33.809Z,51.30
2023-01-22T07:20:24.188Z,62.40
2023-01-22T07:23:11.836Z,49.28
2023-01-22T07:25:59.665Z,47.17
2023-01-22T07:28:48.337Z,49.00
2023-01-22T07:31:35.933Z,51.83
2023-01-22T07:34:23.652Z,57.85
2023-01-22T07:37:11.365Z,54.97
2023-01-22T07:39:59.129Z,66.30
2023-01-22T07:42:46.521Z,57.17
2023-01-22T07:45:36.191Z,66.25
2023-01-22T07:48:23.785Z,73.65
2023-01-22T07:51:12.744Z,54.83
2023-01-22T07:54:00.469Z,49.63
2023-01-22T07:56:48.344Z,52.85
2023-01-22T07:59:36.426Z,49.67
2023-01-22T08:02:26.621Z,42.17
2023-01-22T08:05:15.350Z,43.05
2023-01-22T08:08:03.127Z,40.08
2023-01-22T08:10:50.653Z,37.58
2023-01-22T08:13:37.970Z,45.88
2023-01-22T08:16:25.739Z,42.83
2023-01-22T08:19:14.788Z,44.10
2023-01-22T08:22:02.649Z,50.80
2023-01-22T08:24:50.216Z,41.40
2023-01-22T08:27:37.902Z,42.83
2023-01-22T08:30:25.454Z,40.08
2023-01-22T08:33:13.220Z,47.63
2023-01-22T08:36:02.541Z,45.95
2023-01-22T08:38:50.350Z,40.25
2023-01-22T08:41:38.351Z,58.45
2023-01-22T08:44:26.031Z,37.05
2023-01-22T08:47:13.594Z,37.92
2023-01-22T08:50:02.073Z,36.33
2023-01-22T08:52:51.394Z,40.13
2023-01-22T08:55:38.890Z,30.42
2023-01-22T08:58:27.965Z,34.67
2023-01-22T09:01:16.800Z,36.45
2023-01-22T09:04:07.179Z,37.03
2023-01-22T09:06:54.540Z,32.13
2023-01-22T09:09:43.309Z,29.48
2023-01-22T09:12:31.126Z,36.50
2023-01-22T09:15:19.068Z,41.38
2023-01-22T09:18:06.911Z,35.90
2023-01-22T09:20:54.323Z,36.60
2023-01-22T09:23:41.669Z,38.40
2023-01-22T09:26:32.293Z,36.20
2023-01-22T09:29:19.687Z,30.65
2023-01-22T09:32:07.450Z,33.65
2023-01-22T09:34:55.191Z,35.25
2023-01-22T09:37:42.787Z,35.60
2023-01-22T09:40:35.101Z,34.70
2023-01-22T09:43:32.187Z,41.28
2023-01-22T09:46:28.801Z,43.05
2023-01-22T09:49:18.087Z,43.55
2023-01-22T09:52:07.405Z,40.17
2023-01-22T09:54:55.052Z,38.60
2023-01-22T09:57:46.261Z,38.58
2023-01-22T10:00:40.757Z,40.40
2023-01-22T10:03:33.490Z,34.00
2023-01-22T10:06:23.854Z,34.45
2023-01-22T10:09:16.518Z,35.00
2023-01-22T10:12:15.643Z,35.83
2023-01-22T10:15:03.229Z,33.17
2023-01-22T10:17:53.404Z,27.85
2023-01-22T10:20:41.576Z,31.13
2023-01-22T10:23:29.288Z,27.73
2023-01-22T10:26:19.505Z,31.13
2023-01-22T10:29:09.007Z,26.95
2023-01-22T10:31:58.803Z,27.48
2023-01-22T10:35:00.003Z,26.60
2023-01-22T10:37:49.407Z,30.38
2023-01-22T10:40:40.943Z,30.95
2023-01-22T10:43:33.993Z,29.02
2023-01-22T10:46:26.362Z,29.15
2023-01-22T10:49:18.242Z,29.52
2023-01-22T10:52:21.690Z,26.88
2023-01-22T10:55:22.715Z,26.50
2023-01-22T10:58:18.222Z,29.40
2023-01-22T11:01:08.191Z,26.77
2023-01-22T11:03:55.624Z,28.08
2023-01-22T11:06:46.918Z,26.70
2023-01-22T11:09:55.578Z,29.52
2023-01-22T11:12:47.632Z,25.58
2023-01-22T11:15:42.186Z,26.67
2023-01-22T11:18:35.310Z,30.55
2023-01-22T11:21:28.035Z,31.80
2023-01-22T11:24:19.624Z,27.58
2023-01-22T11:27:25.773Z,32.13
2023-01-22T11:30:46.829Z,28.75
2023-01-22T11:33:59.119Z,33.47
2023-01-22T11:36:50.718Z,33.97
2023-01-22T11:40:11.602Z,34.70
2023-01-22T11:43:28.489Z,33.72
2023-01-22T11:46:27.880Z,37.97
2023-01-22T11:49:26.873Z,34.63
2023-01-22T11:52:27.687Z,33.13
2023-01-22T11:55:32.853Z,32.40
2023-01-22T11:58:32.501Z,29.67
2023-01-22T12:01:33.068Z,31.27
2023-01-22T12:04:52.507Z,32.25
2023-01-22T12:07:52.621Z,29.88
2023-01-22T12:10:56.857Z,30.10
2023-01-22T12:16:45.107Z,35.13
2023-01-22T12:19:45.662Z,35.92
2023-01-22T12:22:39.191Z,35.40
2023-01-22T12:25:36.240Z,31.08
2023-01-22T12:28:29.211Z,36.50
2023-01-22T12:31:19.757Z,40.33
2023-01-22T12:34:16.807Z,38.42
2023-01-22T12:37:05.921Z,36.13
2023-01-22T12:40:16.204Z,37.50
2023-01-22T12:43:05.533Z,35.30
2023-01-22T12:45:56.854Z,30.65
2023-01-22T12:48:55.731Z,30.40
2023-01-22T12:51:46.193Z,24.83
2023-01-22T12:54:37.027Z,27.75
2023-01-22T12:57:26.704Z,26.05
2023-01-22T13:00:25.910Z,23.00
2023-01-22T13:03:33.250Z,26.58
2023-01-22T13:06:25.311Z,26.17
2023-01-22T13:09:27.470Z,22.38
2023-01-22T13:12:27.904Z,25.15
2023-01-22T13:15:22.046Z,20.70
2023-01-22T13:18:20.232Z,23.80
2023-01-22T13:21:09.347Z,25.52
2023-01-22T13:24:01.705Z,24.95
2023-01-22T13:26:57.208Z,29.48
2023-01-22T13:29:45.839Z,34.45
2023-01-22T13:32:33.552Z,25.73
2023-01-22T13:35:21.051Z,25.95
2023-01-22T13:38:16.727Z,28.42
2023-01-22T13:41:10.148Z,28.52
2023-01-22T13:43:59.704Z,31.50
2023-01-22T13:46:47.559Z,27.63
2023-01-22T13:49:42.738Z,29.67
2023-01-22T13:52:33.137Z,27.40
2023-01-22T13:55:23.075Z,30.45
2023-01-22T13:58:46.696Z,29.25
2023-01-22T14:01:38.451Z,27.25
2023-01-22T14:04:37.389Z,28.30
2023-01-22T14:07:27.196Z,27.92
2023-01-22T14:10:17.575Z,32.25
2023-01-22T14:13:07.848Z,29.67
2023-01-22T14:15:57.403Z,32.67
2023-01-22T14:18:46.876Z,25.38
2023-01-22T14:21:35.211Z,31.45
2023-01-22T14:24:22.983Z,31.98
2023-01-22T14:27:10.903Z,31.33
2023-01-22T14:29:58.539Z,34.38
2023-01-22T14:32:47.156Z,29.58
2023-01-22T14:35:36.103Z,36.97
2023-01-22T14:38:24.599Z,30.55
2023-01-22T14:41:12.382Z,32.08
2023-01-22T14:44:00.126Z,37.30
2023-01-22T14:46:47.663Z,38.13
2023-01-22T14:49:35.949Z,34.72
2023-01-22T14:52:24.582Z,33.88
2023-01-22T14:55:12.278Z,30.95
2023-01-22T14:58:00.110Z,30.92
2023-01-22T15:00:47.514Z,30.13
2023-01-22T15:03:35.535Z,32.03
2023-01-22T15:06:25.120Z,36.20
2023-01-22T15:09:14.056Z,38.42
2023-01-22T15:12:01.749Z,41.80
2023-01-22T15:14:49.780Z,40.78
2023-01-22T15:17:37.425Z,34.92
2023-01-22T15:20:25.147Z,36.75
2023-01-22T15:23:12.877Z,48.13
2023-01-22T15:26:03.255Z,39.15
2023-01-22T15:28:50.648Z,39.28
2023-01-22T15:31:38.882Z,40.88
2023-01-22T15:34:26.306Z,39.95
2023-01-22T15:37:14.975Z,52.45
2023-01-22T15:40:03.185Z,45.78
2023-01-22T15:42:52.169Z,45.30
2023-01-22T15:45:39.775Z,48.00
2023-01-22T15:48:27.205Z,44.05
2023-01-22T15:51:15.767Z,42.20
2023-01-22T15:54:05.432Z,50.72
2023-01-22T15:56:53.152Z,51.65
2023-01-22T15:59:42.156Z,51.10
2023-01-22T16:02:29.560Z,52.30
2023-01-22T16:05:17.563Z,56.47
2023-01-22T16:08:05.112Z,56.80
2023-01-22T16:10:52.753Z,55.15
2023-01-22T16:13:40.495Z,72.50
2023-01-22T16:16:31.462Z,70.30
2023-01-22T16:19:19.185Z,61.00
2023-01-22T16:22:06.963Z,61.42
2023-01-22T16:24:54.354Z,51.40
2023-01-22T16:27:42.062Z,58.15
2023-01-22T16:30:29.584Z,54.03
2023-01-22T16:33:23.157Z,57.47
2023-01-22T16:36:13.174Z,54.53
2023-01-22T16:39:01.982Z,84.63
2023-01-22T16:41:51.241Z,53.97
2023-01-22T16:44:39.183Z,52.83
2023-01-22T16:47:26.588Z,58.28
2023-01-22T16:50:15.571Z,49.95
2023-01-22T16:53:03.146Z,43.60
2023-01-22T16:55:51.174Z,56.65
2023-01-22T16:58:38.865Z,51.25
2023-01-22T17:01:27.108Z,48.15
2023-01-22T17:04:15.013Z,51.70
2023-01-22T17:07:06.050Z,45.60
2023-01-22T17:09:53.669Z,52.83
2023-01-22T17:12:41.033Z,42.60
2023-01-22T17:15:29.108Z,47.17
2023-01-22T17:18:16.893Z,49.65
2023-01-22T17:21:06.672Z,51.83
2023-01-22T17:23:55.722Z,46.80
2023-01-22T17:26:43.402Z,41.15
2023-01-22T17:29:33.556Z,55.95
2023-01-22T17:32:22.534Z,56.13
2023-01-22T17:35:11.585Z,52.90
2023-01-22T17:37:59.380Z,54.25
2023-01-22T17:40:48.178Z,53.55
2023-01-22T17:43:36.681Z,46.78
2023-01-22T17:46:26.541Z,54.15
2023-01-22T17:49:14.376Z,49.65
2023-01-22T17:52:02.163Z,48.72
2023-01-22T17:54:51.948Z,53.35
2023-01-22T17:57:41.541Z,56.10
2023-01-22T18:00:31.230Z,48.60
2023-01-22T18:03:19.206Z,47.03
2023-01-22T18:06:07.924Z,45.67
2023-01-22T18:08:55.617Z,39.97
2023-01-22T18:11:43.795Z,40.28
2023-01-22T18:14:34.252Z,41.67
2023-01-22T18:17:21.864Z,41.92
2023-01-22T18:20:10.547Z,40.08
2023-01-22T18:22:57.993Z,44.55
2023-01-22T18:25:49.949Z,37.90
2023-01-22T18:28:37.813Z,41.40
2023-01-22T18:31:29.106Z,43.33
2023-01-22T18:34:17.734Z,45.28
2023-01-22T18:37:05.444Z,47.30
2023-01-22T18:39:53.216Z,56.67
2023-01-22T18:42:40.961Z,62.60
2023-01-22T18:45:28.529Z,51.80
2023-01-22T18:48:17.642Z,54.53
2023-01-22T18:51:06.060Z,56.88
2023-01-22T18:53:53.843Z,56.28
2023-01-22T18:56:41.561Z,52.30
2023-01-22T18:59:29.412Z,58.85
2023-01-22T19:02:21.242Z,57.03
2023-01-22T19:05:11.668Z,61.60
2023-01-22T19:07:58.939Z,54.78
2023-01-22T19:10:46.976Z,56.88
2023-01-22T19:13:36.238Z,52.75
2023-01-22T19:16:24.770Z,63.45
2023-01-22T19:19:14.695Z,57.05
2023-01-22T19:22:04.600Z,62.65
2023-01-22T19:24:52.036Z,61.50
2023-01-22T19:27:39.966Z,57.55
2023-01-22T19:30:27.813Z,54.45
2023-01-22T19:33:15.302Z,53.80
2023-01-22T19:36:03.422Z,50.92
2023-01-22T19:38:52.756Z,51.83
2023-01-22T19:41:40.984Z,52.30
2023-01-22T19:44:28.615Z,51.00
2023-01-22T19:47:16.028Z,49.80
2023-01-22T19:50:03.498Z,44.35
2023-01-22T19:52:51.376Z,49.65
2023-01-22T19:55:40.611Z,58.28
2023-01-22T19:58:28.935Z,53.90
2023-01-22T20:01:17.375Z,47.47
2023-01-22T20:04:08.915Z,50.65
2023-01-22T20:06:58.800Z,56.55
2023-01-22T20:09:46.253Z,51.95
2023-01-22T20:12:35.321Z,48.30
2023-01-22T20:15:23.037Z,52.63
2023-01-22T20:18:11.022Z,55.63
2023-01-22T20:21:00.541Z,49.38
2023-01-22T20:23:49.465Z,55.45
2023-01-22T20:26:37.331Z,46.63
2023-01-22T20:29:26.625Z,57.53
2023-01-22T20:32:14.367Z,54.22
2023-01-22T20:35:01.976Z,59.10
2023-01-22T20:37:49.576Z,57.13
2023-01-22T20:40:39.193Z,51.78
2023-01-22T20:43:26.982Z,44.65
2023-01-22T20:46:17.616Z,54.95
2023-01-22T20:49:05.117Z,55.33
2023-01-22T20:51:53.422Z,47.65
2023-01-22T20:54:54.967Z,51.53
2023-01-22T20:57:47.673Z,57.08
2023-01-22T21:00:35.175Z,52.35
2023-01-22T21:03:25.362Z,47.03
2023-01-22T21:06:14.968Z,53.67
2023-01-22T21:09:03.159Z,47.63
2023-01-22T21:11:50.937Z,46.28
2023-01-22T21:14:38.383Z,42.17
2023-01-22T21:17:25.839Z,49.78
2023-01-22T21:20:15.672Z,48.30
2023-01-22T21:23:03.398Z,58.13
2023-01-22T21:25:50.856Z,51.72
2023-01-22T21:28:39.765Z,49.95
2023-01-22T21:31:28.146Z,48.90
2023-01-22T21:34:16.823Z,51.75
2023-01-22T21:37:05.799Z,50.88
2023-01-22T21:39:53.669Z,44.58
2023-01-22T21:42:58.804Z,53.00
2023-01-22T21:46:04.031Z,51.83
2023-01-22T21:48:51.599Z,52.60
2023-01-22T21:51:39.551Z,52.33
2023-01-22T21:54:31.057Z,52.63
2023-01-22T21:57:19.607Z,52.90
2023-01-22T22:00:08.656Z,47.47
2023-01-22T22:02:56.119Z,50.13
2023-01-22T22:05:43.860Z,46.53
2023-01-22T22:08:31.195Z,50.33
2023-01-22T22:11:20.273Z,51.63
2023-01-22T22:14:10.191Z,43.40
2023-01-22T22:16:58.473Z,49.38
2023-01-22T22:19:46.115Z,43.88
2023-01-22T22:22:33.781Z,41.28
2023-01-22T22:25:21.262Z,44.53
2023-01-22T22:28:10.177Z,51.15
2023-01-22T22:31:04.103Z,46.75
2023-01-22T22:33:53.436Z,46.55
2023-01-22T22:36:43.104Z,50.53
2023-01-22T22:39:30.562Z,43.63
2023-01-22T22:42:17.868Z,38.15
2023-01-22T22:45:07.710Z,40.97
2023-01-22T22:47:55.255Z,43.22
2023-01-22T22:50:43.400Z,46.00
2023-01-22T22:53:31.298Z,47.97
2023-01-22T22:56:18.850Z,42.22
2023-01-22T22:59:06.735Z,47.05
2023-01-22T23:01:56.038Z,41.67
2023-01-22T23:04:43.643Z,46.05
2023-01-22T23:07:31.439Z,46.28
2023-01-22T23:10:29.728Z,51.05
2023-01-22T23:13:17.630Z,48.60
2023-01-22T23:16:07.081Z,39.58
2023-01-22T23:18:58.180Z,47.80
2023-01-22T23:21:46.608Z,48.15
2023-01-22T23:24:34.314Z,53.28
2023-01-22T23:27:22.081Z,39.03
2023-01-22T23:30:10.954Z,37.45
2023-01-22T23:32:58.764Z,48.30
2023-01-22T23:35:47.573Z,40.80
2023-01-22T23:38:35.274Z,49.55
2023-01-22T23:41:23.772Z,52.40
2023-01-22T23:44:11.771Z,48.60
2023-01-22T23:46:59.101Z,43.70
2023-01-22T23:49:46.946Z,46.45
2023-01-22T23:52:36.174Z,47.17
2023-01-22T23:55:23.950Z,50.72
2023-01-22T23:58:12.005Z,57.83
